createdAt,value
2018-04-29T00:00:49.722Z,3.33
2018-04-29T00:03:18.167Z,2.90
2018-04-29T00:05:47.239Z,4.50
2018-04-29T00:08:18.953Z,3.55
2018-04-29T00:10:54.065Z,3.30
2018-04-29T00:13:25.105Z,3.50
2018-04-29T00:15:55.248Z,4.00
2018-04-29T00:18:23.933Z,3.25
2018-04-29T00:20:55.770Z,3.40
2018-04-29T00:23:31.058Z,3.72
2018-04-29T00:26:00.460Z,3.30
2018-04-29T00:28:50.776Z,2.87
2018-04-29T00:31:23.461Z,3.20
2018-04-29T00:33:53.390Z,3.10
2018-04-29T00:36:22.050Z,3.00
2018-04-29T00:38:50.797Z,3.70
2018-04-29T00:41:21.649Z,2.95
2018-04-29T00:43:50.191Z,3.85
2018-04-29T00:46:18.745Z,4.35
2018-04-29T00:48:49.213Z,3.47
2018-04-29T00:51:17.976Z,3.65
2018-04-29T00:53:46.648Z,3.42
2018-04-29T00:56:16.425Z,3.78
2018-04-29T00:58:45.392Z,3.78
2018-04-29T01:01:15.311Z,3.10
2018-04-29T01:03:45.218Z,3.20
2018-04-29T01:06:14.176Z,3.80
2018-04-29T01:08:44.580Z,4.30
2018-04-29T01:11:14.952Z,4.05
2018-04-29T01:13:43.893Z,3.60
2018-04-29T01:16:13.907Z,3.83
2018-04-29T01:18:43.078Z,3.12
2018-04-29T01:21:13.890Z,2.95
2018-04-29T01:23:42.432Z,2.55
2018-04-29T01:26:11.000Z,2.50
2018-04-29T01:28:41.857Z,2.40
2018-04-29T01:31:10.392Z,2.75
2018-04-29T01:33:40.655Z,2.45
2018-04-29T01:36:09.308Z,3.00
2018-04-29T01:38:38.913Z,2.87
2018-04-29T01:41:09.329Z,2.33
2018-04-29T01:43:39.908Z,2.83
2018-04-29T01:46:08.637Z,2.75
2018-04-29T01:48:38.047Z,2.75
2018-04-29T01:51:08.596Z,3.95
2018-04-29T01:53:37.617Z,2.65
2018-04-29T01:56:07.588Z,2.83
2018-04-29T01:58:36.165Z,2.60
2018-04-29T02:01:05.940Z,2.55
2018-04-29T02:03:34.951Z,3.10
2018-04-29T02:06:04.618Z,2.50
2018-04-29T02:08:33.542Z,2.55
2018-04-29T02:11:06.704Z,2.37
2018-04-29T02:13:36.462Z,2.90
2018-04-29T02:16:05.444Z,2.85
2018-04-29T02:18:34.365Z,2.55
2018-04-29T02:21:09.078Z,2.50
2018-04-29T02:23:39.288Z,3.20
2018-04-29T02:26:09.136Z,2.35
2018-04-29T02:28:39.729Z,2.92
2018-04-29T02:31:17.023Z,2.42
2018-04-29T02:33:49.772Z,2.33
2018-04-29T02:36:18.484Z,2.90
2018-04-29T02:38:49.499Z,3.30
2018-04-29T02:41:19.699Z,3.10
2018-04-29T02:43:49.624Z,2.78
2018-04-29T02:46:19.069Z,2.85
2018-04-29T02:48:47.826Z,2.75
2018-04-29T02:51:22.531Z,2.45
2018-04-29T02:53:55.511Z,2.25
2018-04-29T02:56:24.518Z,3.22
2018-04-29T02:58:53.903Z,3.90
2018-04-29T03:01:26.116Z,3.30
2018-04-29T03:03:54.296Z,3.03
2018-04-29T03:06:22.545Z,3.05
2018-04-29T03:08:50.950Z,2.87
2018-04-29T03:11:26.389Z,2.70
2018-04-29T03:13:55.566Z,2.97
2018-04-29T03:16:24.291Z,3.58
2018-04-29T03:18:52.863Z,2.90
2018-04-29T03:21:24.778Z,2.70
2018-04-29T03:24:08.179Z,3.30
2018-04-29T03:26:38.410Z,3.58
2018-04-29T03:29:10.217Z,2.85
2018-04-29T03:31:44.897Z,3.53
2018-04-29T03:34:13.786Z,2.53
2018-04-29T03:36:56.134Z,2.75
2018-04-29T03:39:25.179Z,2.85
2018-04-29T03:41:53.839Z,2.90
2018-04-29T03:44:23.147Z,3.55
2018-04-29T03:46:53.356Z,2.55
2018-04-29T03:49:22.232Z,3.42
2018-04-29T03:51:51.070Z,2.97
2018-04-29T03:54:19.680Z,2.92
2018-04-29T03:56:49.240Z,3.67
2018-04-29T03:59:30.832Z,3.28
2018-04-29T04:02:11.899Z,3.70
2018-04-29T04:04:40.743Z,3.25
2018-04-29T04:07:09.763Z,3.33
2018-04-29T04:09:40.321Z,3.30
2018-04-29T04:12:08.480Z,3.03
2018-04-29T04:14:37.084Z,3.78
2018-04-29T04:17:05.978Z,3.80
2018-04-29T04:19:34.500Z,2.95
2018-04-29T04:22:03.118Z,3.40
2018-04-29T04:24:31.718Z,3.55
2018-04-29T04:27:00.368Z,4.03
2018-04-29T04:29:29.612Z,3.53
2018-04-29T04:31:58.480Z,4.05
2018-04-29T04:34:26.740Z,3.75
2018-04-29T04:36:56.107Z,3.30
2018-04-29T04:39:24.985Z,3.97
2018-04-29T04:41:53.648Z,3.40
2018-04-29T04:44:23.099Z,3.37
2018-04-29T04:46:52.392Z,3.70
2018-04-29T04:49:22.246Z,3.25
2018-04-29T04:51:50.495Z,3.42
2018-04-29T04:54:19.836Z,3.50
2018-04-29T04:56:48.959Z,3.20
2018-04-29T04:59:18.201Z,3.70
2018-04-29T05:01:47.256Z,4.00
2018-04-29T05:04:15.691Z,4.25
2018-04-29T05:06:43.927Z,3.97
2018-04-29T05:09:12.323Z,4.65
2018-04-29T05:11:45.380Z,4.28
2018-04-29T05:14:14.183Z,3.50
2018-04-29T05:16:45.965Z,5.00
2018-04-29T05:19:18.376Z,4.57
2018-04-29T05:21:55.613Z,4.43
2018-04-29T05:24:24.424Z,5.45
2018-04-29T05:27:01.665Z,5.00
2018-04-29T05:29:32.593Z,5.05
2018-04-29T05:32:01.637Z,5.97
2018-04-29T05:34:31.720Z,5.57
2018-04-29T05:37:01.518Z,4.25
2018-04-29T05:39:33.095Z,4.87
2018-04-29T05:42:01.489Z,4.50
2018-04-29T05:44:32.038Z,3.85
2018-04-29T05:47:03.845Z,5.30
2018-04-29T05:49:33.678Z,4.30
2018-04-29T05:52:03.622Z,4.43
2018-04-29T05:54:32.910Z,5.05
2018-04-29T05:57:03.265Z,4.85
2018-04-29T05:59:32.352Z,3.70
2018-04-29T06:02:01.633Z,4.55
2018-04-29T06:04:30.653Z,3.87
2018-04-29T06:06:59.165Z,3.97
2018-04-29T06:09:30.381Z,4.37
2018-04-29T06:12:02.159Z,4.00
2018-04-29T06:14:31.165Z,4.82
2018-04-29T06:17:01.022Z,4.32
2018-04-29T06:19:30.013Z,4.15
2018-04-29T06:21:59.037Z,4.43
2018-04-29T06:24:27.945Z,4.97
2018-04-29T06:26:57.663Z,4.45
2018-04-29T06:29:30.096Z,4.57
2018-04-29T06:32:01.048Z,4.35
2018-04-29T06:34:33.608Z,3.80
2018-04-29T06:37:02.573Z,3.33
2018-04-29T06:39:31.065Z,3.67
2018-04-29T06:42:00.158Z,3.22
2018-04-29T06:44:28.719Z,3.10
2018-04-29T06:46:57.926Z,3.40
2018-04-29T06:49:28.386Z,2.80
2018-04-29T06:51:57.051Z,3.87
2018-04-29T06:54:26.066Z,3.40
2018-04-29T06:56:55.338Z,4.28
2018-04-29T06:59:23.493Z,3.37
2018-04-29T07:01:51.815Z,4.00
2018-04-29T07:04:19.966Z,3.55
2018-04-29T07:06:50.593Z,3.03
2018-04-29T07:09:18.796Z,3.87
2018-04-29T07:11:47.763Z,3.17
2018-04-29T07:14:15.985Z,3.12
2018-04-29T07:16:44.193Z,2.80
2018-04-29T07:19:12.549Z,2.72
2018-04-29T07:21:43.435Z,3.30
2018-04-29T07:24:12.119Z,2.70
2018-04-29T07:26:42.429Z,2.65
2018-04-29T07:29:11.420Z,3.58
2018-04-29T07:31:43.828Z,3.12
2018-04-29T07:34:21.552Z,2.65
2018-04-29T07:36:53.409Z,2.90
2018-04-29T07:39:22.891Z,2.37
2018-04-29T07:41:51.164Z,2.60
2018-04-29T07:44:20.350Z,2.80
2018-04-29T07:46:49.750Z,3.33
2018-04-29T07:49:23.718Z,3.45
2018-04-29T07:51:51.940Z,2.47
2018-04-29T07:54:20.181Z,2.40
2018-04-29T07:56:49.721Z,2.85
2018-04-29T07:59:17.880Z,2.65
2018-04-29T08:01:47.178Z,2.80
2018-04-29T08:04:16.381Z,2.30
2018-04-29T08:06:47.003Z,2.80
2018-04-29T08:09:15.981Z,2.60
2018-04-29T08:11:47.408Z,3.42
2018-04-29T08:14:18.721Z,2.53
2018-04-29T08:16:52.691Z,2.62
2018-04-29T08:19:20.898Z,3.12
2018-04-29T08:21:49.137Z,2.83
2018-04-29T08:24:19.426Z,2.17
2018-04-29T08:26:47.905Z,3.30
2018-04-29T08:29:17.026Z,2.80
2018-04-29T08:31:45.266Z,2.67
2018-04-29T08:34:14.201Z,2.70
2018-04-29T08:36:42.432Z,2.72
2018-04-29T08:39:11.452Z,3.03
2018-04-29T08:41:46.451Z,3.15
2018-04-29T08:44:15.321Z,2.85
2018-04-29T08:46:45.316Z,2.65
2018-04-29T08:49:13.566Z,4.05
2018-04-29T08:51:45.578Z,3.15
2018-04-29T08:54:16.994Z,3.80
2018-04-29T08:56:46.572Z,2.72
2018-04-29T08:59:15.768Z,2.90
2018-04-29T09:01:47.483Z,3.53
2018-04-29T09:04:16.144Z,3.42
2018-04-29T09:06:44.779Z,3.70
2018-04-29T09:09:14.103Z,2.95
2018-04-29T09:11:42.670Z,3.90
2018-04-29T09:14:11.351Z,2.78
2018-04-29T09:16:42.898Z,3.12
2018-04-29T09:19:11.697Z,3.80
2018-04-29T09:21:43.817Z,3.40
2018-04-29T09:24:12.610Z,3.22
2018-04-29T09:26:41.581Z,4.53
2018-04-29T09:29:11.016Z,2.15
2018-04-29T09:31:40.422Z,3.78
2018-04-29T09:34:10.272Z,3.22
2018-04-29T09:36:51.919Z,2.83
2018-04-29T09:39:27.989Z,3.90
2018-04-29T09:41:57.698Z,2.77
2018-04-29T09:44:26.652Z,3.17
2018-04-29T09:46:54.816Z,3.80
2018-04-29T09:49:23.738Z,3.50
2018-04-29T09:51:51.911Z,3.50
2018-04-29T09:54:20.094Z,3.30
2018-04-29T09:56:49.556Z,3.23
2018-04-29T09:59:24.670Z,2.80
2018-04-29T10:01:52.987Z,3.50
2018-04-29T10:04:21.248Z,3.60
2018-04-29T10:06:50.532Z,2.80
2018-04-29T10:09:19.185Z,3.07
2018-04-29T10:11:49.718Z,3.80
2018-04-29T10:14:19.177Z,3.63
2018-04-29T10:16:48.155Z,3.13
2018-04-29T10:19:16.585Z,3.50
2018-04-29T10:21:52.023Z,3.07
2018-04-29T10:24:23.977Z,2.37
2018-04-29T10:26:53.235Z,3.77
2018-04-29T10:29:23.291Z,2.90
2018-04-29T10:31:52.945Z,3.30
2018-04-29T10:34:21.964Z,3.00
2018-04-29T10:36:51.006Z,3.17
2018-04-29T10:39:21.309Z,3.10
2018-04-29T10:41:49.485Z,2.90
2018-04-29T10:44:17.734Z,3.23
2018-04-29T10:46:46.352Z,3.20
2018-04-29T10:49:15.417Z,2.90
2018-04-29T10:51:50.561Z,3.27
2018-04-29T10:54:19.948Z,3.03
2018-04-29T10:56:52.611Z,2.60
2018-04-29T10:59:21.225Z,3.67
2018-04-29T11:01:50.352Z,3.50
2018-04-29T11:04:18.619Z,3.07
2018-04-29T11:06:48.394Z,3.27
2018-04-29T11:09:20.153Z,3.13
2018-04-29T11:11:50.621Z,3.30
2018-04-29T11:14:19.851Z,3.50
2018-04-29T11:16:48.680Z,3.50
2018-04-29T11:19:17.714Z,3.20
2018-04-29T11:21:52.711Z,3.13
2018-04-29T11:24:21.510Z,2.40
2018-04-29T11:26:50.627Z,2.70
2018-04-29T11:29:19.044Z,2.57
2018-04-29T11:31:47.225Z,3.17
2018-04-29T11:34:15.446Z,2.80
2018-04-29T11:36:43.778Z,2.93
2018-04-29T11:39:12.035Z,3.20
2018-04-29T11:41:42.617Z,2.33
2018-04-29T11:44:10.853Z,3.17
2018-04-29T11:46:40.342Z,2.90
2018-04-29T11:49:09.293Z,2.70
2018-04-29T11:51:39.480Z,2.87
2018-04-29T11:54:07.848Z,3.33
2018-04-29T11:56:36.088Z,2.97
2018-04-29T11:59:06.388Z,2.83
2018-04-29T12:01:40.688Z,2.23
2018-04-29T12:04:09.636Z,2.70
2018-04-29T12:06:38.359Z,3.63
2018-04-29T12:09:06.597Z,2.80
2018-04-29T12:11:34.975Z,3.03
2018-04-29T12:14:03.921Z,2.77
2018-04-29T12:16:32.114Z,2.80
2018-04-29T12:19:00.280Z,2.73
2018-04-29T12:21:28.448Z,3.10
2018-04-29T12:23:56.724Z,3.00
2018-04-29T12:26:27.428Z,3.00
2018-04-29T12:28:57.990Z,2.77
2018-04-29T12:31:26.942Z,3.00
2018-04-29T12:33:55.993Z,2.67
2018-04-29T12:36:24.254Z,3.00
2018-04-29T12:38:53.355Z,3.07
2018-04-29T12:41:24.964Z,2.90
2018-04-29T12:43:54.033Z,2.90
2018-04-29T12:46:22.378Z,3.80
2018-04-29T12:48:51.093Z,3.40
2018-04-29T12:51:21.577Z,3.00
2018-04-29T12:53:50.718Z,5.27
2018-04-29T12:59:05.506Z,3.17
2018-04-29T13:01:35.904Z,3.00
2018-04-29T13:04:04.067Z,2.83
2018-04-29T13:06:32.242Z,3.23
2018-04-29T13:09:01.108Z,2.60
2018-04-29T13:11:35.290Z,2.83
2018-04-29T13:14:11.009Z,2.97
2018-04-29T13:16:39.180Z,2.40
2018-04-29T13:19:10.941Z,2.90
2018-04-29T13:21:41.927Z,2.50
2018-04-29T13:24:11.353Z,3.20
2018-04-29T13:26:40.923Z,2.77
2018-04-29T13:29:15.665Z,2.70
2018-04-29T13:31:44.723Z,2.90
2018-04-29T13:34:14.115Z,2.67
2018-04-29T13:36:43.451Z,2.30
2018-04-29T13:39:12.729Z,2.90
2018-04-29T13:41:42.905Z,2.57
2018-04-29T13:44:11.117Z,2.20
2018-04-29T13:46:39.280Z,2.27
2018-04-29T13:49:07.448Z,2.80
2018-04-29T13:51:37.648Z,3.80
2018-04-29T13:54:06.742Z,2.30
2018-04-29T13:56:36.265Z,2.70
2018-04-29T13:59:05.516Z,2.30
2018-04-29T14:01:36.667Z,2.70
2018-04-29T14:04:06.257Z,2.50
2018-04-29T14:06:34.917Z,3.00
2018-04-29T14:09:03.495Z,3.27
2018-04-29T14:11:33.583Z,2.80
2018-04-29T14:14:02.873Z,2.60
2018-04-29T14:16:31.630Z,2.30
2018-04-29T14:19:01.393Z,2.73
2018-04-29T14:21:29.628Z,1.73
2018-04-29T14:23:57.954Z,3.40
2018-04-29T14:26:26.872Z,2.77
2018-04-29T14:28:55.049Z,3.43
2018-04-29T14:31:23.333Z,2.40
2018-04-29T14:33:51.425Z,2.60
2018-04-29T14:36:19.652Z,2.80
2018-04-29T14:38:48.113Z,3.93
2018-04-29T14:41:16.944Z,2.00
2018-04-29T14:43:45.434Z,2.77
2018-04-29T14:46:13.934Z,3.97
2018-04-29T14:48:43.316Z,3.40
2018-04-29T14:51:12.913Z,3.10
2018-04-29T14:53:41.128Z,2.50
2018-04-29T14:56:09.498Z,3.03
2018-04-29T14:58:38.728Z,3.40
2018-04-29T15:01:06.994Z,3.77
2018-04-29T15:03:35.216Z,3.30
2018-04-29T15:06:03.747Z,4.07
2018-04-29T15:08:32.675Z,4.60
2018-04-29T15:13:59.903Z,4.07
2018-04-29T15:16:48.141Z,3.57
2018-04-29T15:19:16.336Z,3.60
2018-04-29T15:21:45.494Z,3.63
2018-04-29T15:24:15.969Z,3.90
2018-04-29T15:26:45.951Z,3.90
2018-04-29T15:29:38.150Z,3.40
2018-04-29T15:35:32.736Z,3.53
2018-04-29T15:38:12.080Z,3.60
2018-04-29T15:40:49.457Z,6.00
2018-04-29T15:46:37.748Z,3.77
2018-04-29T15:49:05.905Z,2.90
2018-04-29T15:51:36.097Z,3.30
2018-04-29T15:54:05.032Z,3.93
2018-04-29T15:56:33.183Z,3.53
2018-04-29T15:59:01.380Z,3.77
2018-04-29T16:01:30.024Z,4.10
2018-04-29T16:03:58.315Z,3.40
2018-04-29T16:06:26.479Z,3.10
2018-04-29T16:08:56.459Z,3.53
2018-04-29T16:11:25.164Z,3.93
2018-04-29T16:13:54.725Z,3.90
2018-04-29T16:16:24.127Z,3.80
2018-04-29T16:18:52.294Z,4.30
2018-04-29T16:21:20.611Z,3.27
2018-04-29T16:23:49.283Z,4.50
2018-04-29T16:26:19.315Z,3.33
2018-04-29T16:28:47.463Z,3.70
2018-04-29T16:31:15.879Z,4.30
2018-04-29T16:33:48.212Z,4.33
2018-04-29T16:36:16.426Z,4.00
2018-04-29T16:38:45.709Z,3.70
2018-04-29T16:41:13.945Z,4.37
2018-04-29T16:43:42.236Z,3.70
2018-04-29T16:46:16.225Z,3.70
2018-04-29T16:48:44.439Z,4.77
2018-04-29T16:51:19.234Z,3.70
2018-04-29T16:53:49.851Z,3.90
2018-04-29T16:56:18.048Z,3.93
2018-04-29T16:58:46.290Z,3.90
2018-04-29T17:01:15.309Z,3.30
2018-04-29T17:03:43.476Z,3.80
2018-04-29T17:06:11.630Z,3.30
2018-04-29T17:08:39.792Z,3.80
2018-04-29T17:11:08.812Z,3.67
2018-04-29T17:13:36.971Z,3.60
2018-04-29T17:16:05.159Z,3.60
2018-04-29T17:18:33.340Z,3.10
2018-04-29T17:21:07.741Z,3.33
2018-04-29T17:23:37.584Z,2.80
2018-04-29T17:26:05.828Z,3.30
2018-04-29T17:28:34.015Z,2.93
2018-04-29T17:31:03.881Z,4.13
2018-04-29T17:33:32.048Z,3.00
2018-04-29T17:36:00.219Z,3.20
2018-04-29T17:38:28.392Z,3.10
2018-04-29T17:40:57.545Z,3.13
2018-04-29T17:43:25.717Z,3.30
2018-04-29T17:45:53.898Z,4.13
2018-04-29T17:48:22.076Z,4.30
2018-04-29T17:50:50.252Z,4.03
2018-04-29T17:53:18.435Z,4.40
2018-04-29T17:55:46.613Z,4.33
2018-04-29T17:58:15.163Z,5.00
2018-04-29T18:00:44.258Z,4.97
2018-04-29T18:03:12.466Z,5.07
2018-04-29T18:05:40.666Z,3.57
2018-04-29T18:08:10.821Z,3.57
2018-04-29T18:10:39.958Z,4.47
2018-04-29T18:13:08.150Z,3.90
2018-04-29T18:15:37.684Z,3.70
2018-04-29T18:18:05.865Z,3.47
2018-04-29T18:20:35.955Z,3.27
2018-04-29T18:23:04.120Z,4.40
2018-04-29T18:25:32.308Z,3.50
2018-04-29T18:28:00.473Z,4.20
2018-04-29T18:30:28.640Z,3.03
2018-04-29T18:32:58.040Z,2.90
2018-04-29T18:35:26.225Z,3.33
2018-04-29T18:37:55.213Z,3.73
2018-04-29T18:40:24.396Z,3.60
2018-04-29T18:42:53.416Z,3.67
2018-04-29T18:45:23.619Z,3.83
2018-04-29T18:47:51.774Z,2.87
2018-04-29T18:50:20.010Z,4.00
2018-04-29T18:52:48.171Z,4.00
2018-04-29T18:55:16.349Z,4.97
2018-04-29T18:57:45.283Z,3.80
2018-04-29T19:00:13.485Z,5.53
2018-04-29T19:02:41.743Z,4.87
2018-04-29T19:05:10.025Z,5.27
2018-04-29T19:07:38.955Z,4.40
2018-04-29T19:10:07.202Z,4.33
2018-04-29T19:12:35.439Z,4.20
2018-04-29T19:15:03.606Z,3.37
2018-04-29T19:17:34.584Z,3.50
2018-04-29T19:20:04.084Z,4.80
2018-04-29T19:22:32.628Z,4.53
2018-04-29T19:25:01.566Z,3.60
2018-04-29T19:27:30.892Z,4.20
2018-04-29T19:30:00.572Z,4.25
2018-04-29T19:32:29.929Z,5.53
2018-04-29T19:35:00.595Z,4.60
2018-04-29T19:37:28.990Z,3.33
2018-04-29T19:40:00.639Z,5.05
2018-04-29T19:42:28.903Z,4.00
2018-04-29T19:44:57.068Z,3.95
2018-04-29T19:47:27.496Z,3.85
2018-04-29T19:49:58.470Z,3.70
2018-04-29T19:52:26.648Z,4.53
2018-04-29T19:54:55.782Z,4.68
2018-04-29T19:57:23.995Z,3.60
2018-04-29T19:59:53.048Z,4.43
2018-04-29T20:02:24.793Z,3.47
2018-04-29T20:04:54.385Z,5.03
2018-04-29T20:07:23.330Z,4.43
2018-04-29T20:09:51.639Z,4.72
2018-04-29T20:12:19.846Z,4.12
2018-04-29T20:14:48.105Z,5.05
2018-04-29T20:17:16.360Z,3.95
2018-04-29T20:19:45.798Z,5.12
2018-04-29T20:22:15.000Z,4.93
2018-04-29T20:24:45.232Z,4.40
2018-04-29T20:27:13.381Z,4.93
2018-04-29T20:29:47.729Z,5.03
2018-04-29T20:32:42.556Z,6.00
2018-04-29T20:35:10.843Z,4.75
2018-04-29T20:37:39.088Z,7.50
2018-04-29T20:40:07.235Z,5.50
2018-04-29T20:42:35.421Z,5.32
2018-04-29T20:45:03.583Z,4.78
2018-04-29T20:47:35.265Z,5.70
2018-04-29T20:50:03.439Z,4.55
2018-04-29T20:52:34.019Z,5.57
2018-04-29T20:55:02.289Z,4.97
2018-04-29T20:57:30.575Z,6.10
2018-04-29T21:00:02.477Z,5.65
2018-04-29T21:02:36.011Z,4.65
2018-04-29T21:05:05.497Z,5.07
2018-04-29T21:07:33.816Z,4.25
2018-04-29T21:10:02.091Z,4.30
2018-04-29T21:12:31.128Z,4.57
2018-04-29T21:14:59.293Z,5.55
2018-04-29T21:17:28.991Z,5.20
2018-04-29T21:19:57.232Z,5.10
2018-04-29T21:22:25.464Z,5.43
2018-04-29T21:24:53.612Z,4.97
2018-04-29T21:27:21.768Z,4.68
2018-04-29T21:29:50.860Z,5.97
2018-04-29T21:32:19.026Z,5.25
2018-04-29T21:34:47.988Z,6.15
2018-04-29T21:37:16.136Z,5.97
2018-04-29T21:39:51.752Z,6.57
2018-04-29T21:42:28.385Z,5.70
2018-04-29T21:44:56.596Z,6.60
2018-04-29T21:47:26.668Z,5.47
2018-04-29T21:49:58.715Z,5.18
2018-04-29T21:52:26.911Z,5.97
2018-04-29T21:54:55.320Z,4.78
2018-04-29T21:57:24.237Z,5.00
2018-04-29T21:59:55.845Z,5.60
2018-04-29T22:02:24.531Z,5.07
2018-04-29T22:04:57.335Z,6.57
2018-04-29T22:07:25.560Z,6.30
2018-04-29T22:09:57.037Z,5.62
2018-04-29T22:12:26.341Z,6.22
2018-04-29T22:14:55.375Z,5.25
2018-04-29T22:17:23.550Z,6.37
2018-04-29T22:19:52.433Z,4.85
2018-04-29T22:22:20.610Z,4.95
2018-04-29T22:24:48.784Z,4.57
2018-04-29T22:27:16.956Z,4.60
2018-04-29T22:29:45.243Z,5.50
2018-04-29T22:32:13.672Z,4.80
2018-04-29T22:34:42.621Z,3.90
2018-04-29T22:37:10.940Z,5.57
2018-04-29T22:39:39.049Z,5.28
2018-04-29T22:42:07.281Z,5.65
2018-04-29T22:44:36.385Z,6.03
2018-04-29T22:47:05.379Z,6.87
2018-04-29T22:49:33.566Z,7.55
2018-04-29T22:52:02.557Z,5.55
2018-04-29T22:54:31.471Z,6.15
2018-04-29T22:56:59.690Z,5.80
2018-04-29T22:59:27.922Z,5.82
2018-04-29T23:01:56.153Z,6.30
2018-04-29T23:04:24.342Z,5.05
2018-04-29T23:06:53.119Z,5.00
2018-04-29T23:09:21.280Z,5.85
2018-04-29T23:11:50.960Z,5.05
2018-04-29T23:14:19.121Z,4.80
2018-04-29T23:16:47.275Z,4.78
2018-04-29T23:19:16.188Z,5.47
2018-04-29T23:21:45.197Z,4.03
2018-04-29T23:24:13.358Z,4.55
2018-04-29T23:26:41.541Z,5.85
2018-04-29T23:29:09.766Z,4.70
2018-04-29T23:31:38.995Z,5.12
2018-04-29T23:34:07.175Z,6.05
2018-04-29T23:36:35.343Z,4.70
2018-04-29T23:39:03.491Z,3.90
2018-04-29T23:41:33.421Z,3.90
2018-04-29T23:44:01.589Z,3.47
2018-04-29T23:46:30.522Z,4.55
2018-04-29T23:48:58.681Z,5.45
2018-04-29T23:51:27.885Z,5.00
2018-04-29T23:53:56.032Z,5.37
2018-04-29T23:56:24.229Z,4.15
2018-04-29T23:58:52.385Z,5.97
